sensor_id;sensor_type;location;lat;lon;timestamp;temperature;humidity
66150;DHT22;52952;50.904;20.648;2023-12-20T00:07:03;26;83
66150;DHT22;52952;50.904;20.648;2023-12-20T00:14:04;26;83
66150;DHT22;52952;50.904;20.648;2023-12-20T00:21:10;26;83
66150;DHT22;52952;50.904;20.648;2023-12-20T00:28:04;26;83
66150;DHT22;52952;50.904;20.648;2023-12-20T00:35:08;26;83
66150;DHT22;52952;50.904;20.648;2023-12-20T00:42:05;26;83
66150;DHT22;52952;50.904;20.648;2023-12-20T00:49:07;26;83
66150;DHT22;52952;50.904;20.648;2023-12-20T00:56:09;26;83
66150;DHT22;52952;50.904;20.648;2023-12-20T01:00:11;26;83
66150;DHT22;52952;50.904;20.648;2023-12-20T01:07:04;26;83
66150;DHT22;52952;50.904;20.648;2023-12-20T01:14:03;26;83
66150;DHT22;52952;50.904;20.648;2023-12-20T01:21:05;26;83
66150;DHT22;52952;50.904;20.648;2023-12-20T01:28:03;26;83
66150;DHT22;52952;50.904;20.648;2023-12-20T01:35:07;26;83
66150;DHT22;52952;50.904;20.648;2023-12-20T01:42:04;26;83
66150;DHT22;52952;50.904;20.648;2023-12-20T01:49:09;26;83
66150;DHT22;52952;50.904;20.648;2023-12-20T01:56:07;26;83
66150;DHT22;52952;50.904;20.648;2023-12-20T02:00:02;26;83
66150;DHT22;52952;50.904;20.648;2023-12-20T02:07:11;26;83
66150;DHT22;52952;50.904;20.648;2023-12-20T02:14:08;26;83
66150;DHT22;52952;50.904;20.648;2023-12-20T02:21:07;26;83
66150;DHT22;52952;50.904;20.648;2023-12-20T02:28:04;26;83
66150;DHT22;52952;50.904;20.648;2023-12-20T02:35:08;26;83
66150;DHT22;52952;50.904;20.648;2023-12-20T02:42:09;26;83
66150;DHT22;52952;50.904;20.648;2023-12-20T02:49:05;26;83
66150;DHT22;52952;50.904;20.648;2023-12-20T02:56:03;26;83
66150;DHT22;52952;50.904;20.648;2023-12-20T03:00:06;26;83
66150;DHT22;52952;50.904;20.648;2023-12-20T03:07:07;26;83
66150;DHT22;52952;50.904;20.648;2023-12-20T03:14:07;26;83
66150;DHT22;52952;50.904;20.648;2023-12-20T03:21:03;26;83
66150;DHT22;52952;50.904;20.648;2023-12-20T03:28:10;26;83
66150;DHT22;52952;50.904;20.648;2023-12-20T03:35:03;26;83
66150;DHT22;52952;50.904;20.648;2023-12-20T03:42:05;26;83
66150;DHT22;52952;50.904;20.648;2023-12-20T03:49:04;26;83
66150;DHT22;52952;50.904;20.648;2023-12-20T03:56:05;26;83
66150;DHT22;52952;50.904;20.648;2023-12-20T04:00:14;26;83
66150;DHT22;52952;50.904;20.648;2023-12-20T04:07:06;26;84
66150;DHT22;52952;50.904;20.648;2023-12-20T04:14:11;26;84
66150;DHT22;52952;50.904;20.648;2023-12-20T04:21:02;26;84
66150;DHT22;52952;50.904;20.648;2023-12-20T04:28:02;26;84
66150;DHT22;52952;50.904;20.648;2023-12-20T04:42:03;26;84
66150;DHT22;52952;50.904;20.648;2023-12-20T04:49:05;26;84
66150;DHT22;52952;50.904;20.648;2023-12-20T04:56:09;26;84
66150;DHT22;52952;50.904;20.648;2023-12-20T05:00:05;26;84
66150;DHT22;52952;50.904;20.648;2023-12-20T05:07:09;26;82
66150;DHT22;52952;50.904;20.648;2023-12-20T05:14:08;26;82
66150;DHT22;52952;50.904;20.648;2023-12-20T05:21:07;26;82
66150;DHT22;52952;50.904;20.648;2023-12-20T05:28:06;26;82
66150;DHT22;52952;50.904;20.648;2023-12-20T05:35:05;26;82
66150;DHT22;52952;50.904;20.648;2023-12-20T05:42:05;26;82
66150;DHT22;52952;50.904;20.648;2023-12-20T05:49:08;26;82
66150;DHT22;52952;50.904;20.648;2023-12-20T05:56:09;26;82
66150;DHT22;52952;50.904;20.648;2023-12-20T06:00:01;26;82
66150;DHT22;52952;50.904;20.648;2023-12-20T06:07:06;26;84
66150;DHT22;52952;50.904;20.648;2023-12-20T06:14:02;26;84
66150;DHT22;52952;50.904;20.648;2023-12-20T06:21:08;26;84
66150;DHT22;52952;50.904;20.648;2023-12-20T06:28:11;26;84
66150;DHT22;52952;50.904;20.648;2023-12-20T06:35:06;26;84
66150;DHT22;52952;50.904;20.648;2023-12-20T06:42:05;26;84
66150;DHT22;52952;50.904;20.648;2023-12-20T06:49:04;26;84
66150;DHT22;52952;50.904;20.648;2023-12-20T06:56:05;26;84
66150;DHT22;52952;50.904;20.648;2023-12-20T07:00:02;26;84
66150;DHT22;52952;50.904;20.648;2023-12-20T07:07:03;26;83
66150;DHT22;52952;50.904;20.648;2023-12-20T07:14:02;26;83
66150;DHT22;52952;50.904;20.648;2023-12-20T07:21:09;26;83
66150;DHT22;52952;50.904;20.648;2023-12-20T07:28:05;26;83
66150;DHT22;52952;50.904;20.648;2023-12-20T07:35:09;26;83
66150;DHT22;52952;50.904;20.648;2023-12-20T07:42:09;26;83
66150;DHT22;52952;50.904;20.648;2023-12-20T07:49:12;26;83
66150;DHT22;52952;50.904;20.648;2023-12-20T07:56:19;26;83
66150;DHT22;52952;50.904;20.648;2023-12-20T08:00:01;26;83
66150;DHT22;52952;50.904;20.648;2023-12-20T08:14:08;26;83
66150;DHT22;52952;50.904;20.648;2023-12-20T08:21:04;26;83
66150;DHT22;52952;50.904;20.648;2023-12-20T08:28:05;26;83
66150;DHT22;52952;50.904;20.648;2023-12-20T08:42:02;26;83
66150;DHT22;52952;50.904;20.648;2023-12-20T08:49:06;26;83
66150;DHT22;52952;50.904;20.648;2023-12-20T08:56:07;26;83
66150;DHT22;52952;50.904;20.648;2023-12-20T09:00:09;26;83
66150;DHT22;52952;50.904;20.648;2023-12-20T09:14:03;27;78
66150;DHT22;52952;50.904;20.648;2023-12-20T09:21:05;27;78
66150;DHT22;52952;50.904;20.648;2023-12-20T09:28:03;27;78
66150;DHT22;52952;50.904;20.648;2023-12-20T09:42:32;27;78
66150;DHT22;52952;50.904;20.648;2023-12-20T09:49:07;27;78
66150;DHT22;52952;50.904;20.648;2023-12-20T09:56:13;27;78
66150;DHT22;52952;50.904;20.648;2023-12-20T10:00:04;27;78
66150;DHT22;52952;50.904;20.648;2023-12-20T10:14:10;26;78
66150;DHT22;52952;50.904;20.648;2023-12-20T10:21:10;26;78
66150;DHT22;52952;50.904;20.648;2023-12-20T10:28:20;26;78
66150;DHT22;52952;50.904;20.648;2023-12-20T10:35:05;26;78
66150;DHT22;52952;50.904;20.648;2023-12-20T10:42:03;26;78
66150;DHT22;52952;50.904;20.648;2023-12-20T10:49:12;26;78
66150;DHT22;52952;50.904;20.648;2023-12-20T10:56:03;26;78
66150;DHT22;52952;50.904;20.648;2023-12-20T11:00:02;26;78
66150;DHT22;52952;50.904;20.648;2023-12-20T11:14:06;26;77
66150;DHT22;52952;50.904;20.648;2023-12-20T11:21:11;26;77
66150;DHT22;52952;50.904;20.648;2023-12-20T11:28:11;26;77
66150;DHT22;52952;50.904;20.648;2023-12-20T11:35:20;26;77
66150;DHT22;52952;50.904;20.648;2023-12-20T11:42:07;26;77
66150;DHT22;52952;50.904;20.648;2023-12-20T11:49:03;26;77
66150;DHT22;52952;50.904;20.648;2023-12-20T11:56:13;26;77
66150;DHT22;52952;50.904;20.648;2023-12-20T12:00:14;26;77
66150;DHT22;52952;50.904;20.648;2023-12-20T12:14:02;26;76
66150;DHT22;52952;50.904;20.648;2023-12-20T12:21:03;26;76
66150;DHT22;52952;50.904;20.648;2023-12-20T12:28:02;26;76
66150;DHT22;52952;50.904;20.648;2023-12-20T12:35:10;26;76
66150;DHT22;52952;50.904;20.648;2023-12-20T12:42:06;26;76
66150;DHT22;52952;50.904;20.648;2023-12-20T12:49:02;26;76
66150;DHT22;52952;50.904;20.648;2023-12-20T12:56:07;26;76
66150;DHT22;52952;50.904;20.648;2023-12-20T13:00:10;26;76
66150;DHT22;52952;50.904;20.648;2023-12-20T13:14:05;27;74
66150;DHT22;52952;50.904;20.648;2023-12-20T13:21:05;27;74
66150;DHT22;52952;50.904;20.648;2023-12-20T13:28:11;27;74
66150;DHT22;52952;50.904;20.648;2023-12-20T13:35:05;27;74
66150;DHT22;52952;50.904;20.648;2023-12-20T13:42:03;27;74
66150;DHT22;52952;50.904;20.648;2023-12-20T13:49:06;27;74
66150;DHT22;52952;50.904;20.648;2023-12-20T13:56:11;27;74
66150;DHT22;52952;50.904;20.648;2023-12-20T14:00:18;27;74
66150;DHT22;52952;50.904;20.648;2023-12-20T14:07:08;27;74
66150;DHT22;52952;50.904;20.648;2023-12-20T14:07:55;27;73
66150;DHT22;52952;50.904;20.648;2023-12-20T14:14:03;27;73
66150;DHT22;52952;50.904;20.648;2023-12-20T14:21:08;27;73
66150;DHT22;52952;50.904;20.648;2023-12-20T14:28:06;27;73
66150;DHT22;52952;50.904;20.648;2023-12-20T14:37:55;27;73
66150;DHT22;52952;50.904;20.648;2023-12-20T14:37:55;27;73
66150;DHT22;52952;50.904;20.648;2023-12-20T15:07:55;27;73
66150;DHT22;52952;50.904;20.648;2023-12-20T15:07:55;27;73
66150;DHT22;52952;50.904;20.648;2023-12-20T15:07:55;27;73
66150;DHT22;52952;50.904;20.648;2023-12-20T15:07:55;27;73
66150;DHT22;52952;50.904;20.648;2023-12-20T15:07:55;27;73
66150;DHT22;52952;50.904;20.648;2023-12-20T15:07:55;27;73
66150;DHT22;52952;50.904;20.648;2023-12-20T15:07:55;27;73
66150;DHT22;52952;50.904;20.648;2023-12-20T15:37:55;27;73
66150;DHT22;52952;50.904;20.648;2023-12-20T15:37:55;27;73
66150;DHT22;52952;50.904;20.648;2023-12-20T15:37:55;27;73
66150;DHT22;52952;50.904;20.648;2023-12-20T16:08:55;27;73
66150;DHT22;52952;50.904;20.648;2023-12-20T16:08:55;27;73
66150;DHT22;52952;50.904;20.648;2023-12-20T16:38:55;27;73
66150;DHT22;52952;50.904;20.648;2023-12-20T16:38:55;27;73
66150;DHT22;52952;50.904;20.648;2023-12-20T16:47:09;27;73
66150;DHT22;52952;50.904;20.648;2023-12-20T16:50:03;27;73
66150;DHT22;52952;50.904;20.648;2023-12-20T17:00:11;27;73
66150;DHT22;52952;50.904;20.648;2023-12-20T17:10:08;27;73
66150;DHT22;52952;50.904;20.648;2023-12-20T17:30:07;27;73
66150;DHT22;52952;50.904;20.648;2023-12-20T17:31:01;27;73
66150;DHT22;52952;50.904;20.648;2023-12-20T17:37:11;27;73
66150;DHT22;52952;50.904;20.648;2023-12-20T17:40:07;27;73
66150;DHT22;52952;50.904;20.648;2023-12-20T17:50:06;27;73
66150;DHT22;52952;50.904;20.648;2023-12-20T17:56:54;27;73
66150;DHT22;52952;50.904;20.648;2023-12-20T17:57:26;27;73
66150;DHT22;52952;50.904;20.648;2023-12-20T17:58:03;27;73
66150;DHT22;52952;50.904;20.648;2023-12-20T18:00:17;27;73
66150;DHT22;52952;50.904;20.648;2023-12-20T18:02:20;27;73
66150;DHT22;52952;50.904;20.648;2023-12-20T18:18:37;27;78
66150;DHT22;52952;50.904;20.648;2023-12-20T18:30:06;27;78
66150;DHT22;52952;50.904;20.648;2023-12-20T19:00:06;27;78
66150;DHT22;52952;50.904;20.648;2023-12-20T19:30:07;26;81
66150;DHT22;52952;50.904;20.648;2023-12-20T20:00:06;26;81
66150;DHT22;52952;50.904;20.648;2023-12-20T20:30:06;26;79
66150;DHT22;52952;50.904;20.648;2023-12-20T20:48:23;26;79
66150;DHT22;52952;50.904;20.648;2023-12-20T21:00:07;26;79
66150;DHT22;52952;50.904;20.648;2023-12-20T21:20:04;26;78
66150;DHT22;52952;50.904;20.648;2023-12-20T21:40:08;26;78
66150;DHT22;52952;50.904;20.648;2023-12-20T21:50:40;26;78
66150;DHT22;52952;50.904;20.648;2023-12-20T22:00:08;26;78
66150;DHT22;52952;50.904;20.648;2023-12-20T22:30:06;26;80
66150;DHT22;52952;50.904;20.648;2023-12-20T23:00:05;26;80
66150;DHT22;52952;50.904;20.648;2023-12-20T23:30:06;26;77
66150;DHT22;52952;50.904;20.648;2023-12-20T23:45:04;26;77
